Terminal Aerodrome Forecast
Issued by NWS

Home | Current Version | Previous Version | Text Only | Print | Product List | Glossary On
Versions: 1 2 3 4 5 6 7 8 9 10 11 12 13 14 15 16 17 18 19
000
FTUS42 KTBW 302300
TAFPGD
TAF
KPGD 302338Z 3100/3124 VRB06KT P6SM VCSH SCT035 BKN100 BKN250
     FM310200 11003KT P6SM FEW025 BKN250
     FM311400 11008KT P6SM SCT025 BKN250
     FM311800 11009KT P6SM VCTS SCT025CB BKN050=

USA.gov is the U.S. government's official web portal to all federal, state and local government web resources and services.